createdAt,value
2019-02-24T00:01:32.740Z,102481.63
2019-02-24T00:04:01.103Z,102479.35
2019-02-24T00:06:29.428Z,102475.47
2019-02-24T00:08:57.819Z,102474.95
2019-02-24T00:11:26.131Z,102466.59
2019-02-24T00:13:54.477Z,102460.52
2019-02-24T00:16:23.455Z,102467.39
2019-02-24T00:18:51.783Z,102463.22
2019-02-24T00:21:20.126Z,102461.66
2019-02-24T00:23:48.467Z,102465.13
2019-02-24T00:26:16.880Z,102461.05
2019-02-24T00:28:45.174Z,102458.53
2019-02-24T00:31:13.706Z,102462.70
2019-02-24T00:33:42.103Z,102463.87
2019-02-24T00:36:11.035Z,102458.83
2019-02-24T00:38:39.341Z,102456.36
2019-02-24T00:41:07.702Z,102453.94
2019-02-24T00:43:36.059Z,102460.14
2019-02-24T00:46:04.484Z,102448.84
2019-02-24T00:48:32.813Z,102456.26
2019-02-24T00:51:01.159Z,102451.72
2019-02-24T00:53:29.507Z,102448.13
2019-02-24T00:55:57.860Z,102451.16
2019-02-24T00:58:26.196Z,102447.80
2019-02-24T01:00:54.553Z,102448.88
2019-02-24T01:03:22.896Z,102445.52
2019-02-24T01:05:51.242Z,102441.62
2019-02-24T01:08:19.589Z,102444.45
2019-02-24T01:10:47.928Z,102446.56
2019-02-24T01:13:16.646Z,102443.72
2019-02-24T01:15:45.005Z,102458.13
2019-02-24T01:18:13.360Z,102461.98
2019-02-24T01:20:41.715Z,102461.98
2019-02-24T01:23:10.420Z,102462.34
2019-02-24T01:25:38.841Z,102465.78
2019-02-24T01:28:07.290Z,102465.55
2019-02-24T01:30:35.767Z,102463.05
2019-02-24T01:33:04.216Z,102460.73
2019-02-24T01:35:32.551Z,102453.75
2019-02-24T01:38:00.906Z,102459.54
2019-02-24T01:40:29.243Z,102457.00
2019-02-24T01:42:57.599Z,102458.47
2019-02-24T01:45:25.974Z,102458.03
2019-02-24T01:47:54.303Z,102460.25
2019-02-24T01:50:22.798Z,102450.48
2019-02-24T01:52:51.163Z,102453.66
2019-02-24T01:55:19.525Z,102454.42
2019-02-24T01:57:47.871Z,102453.70
2019-02-24T02:00:16.699Z,102448.23
2019-02-24T02:02:45.062Z,102443.87
2019-02-24T02:05:14.026Z,102446.70
2019-02-24T02:07:42.379Z,102442.42
2019-02-24T02:10:11.408Z,102451.03
2019-02-24T02:12:39.778Z,102455.41
2019-02-24T02:15:08.543Z,102457.54
2019-02-24T02:17:36.913Z,102451.05
2019-02-24T02:20:07.879Z,102448.48
2019-02-24T02:22:36.245Z,102449.75
2019-02-24T02:25:06.006Z,102449.66
2019-02-24T02:27:34.507Z,102447.78
2019-02-24T02:30:02.905Z,102446.55
2019-02-24T02:32:31.284Z,102448.33
2019-02-24T02:34:59.629Z,102446.71
2019-02-24T02:37:28.004Z,102449.53
2019-02-24T02:39:56.602Z,102440.10
2019-02-24T02:42:24.966Z,102447.02
2019-02-24T02:44:53.290Z,102443.42
2019-02-24T02:47:21.602Z,102438.69
2019-02-24T02:49:50.005Z,102434.24
2019-02-24T02:52:18.326Z,102432.05
2019-02-24T02:54:46.692Z,102420.53
2019-02-24T02:57:15.044Z,102421.47
2019-02-24T02:59:43.420Z,102418.14
2019-02-24T03:02:12.212Z,102424.80
2019-02-24T03:04:40.545Z,102429.48
2019-02-24T03:07:12.864Z,102425.17
2019-02-24T03:09:41.236Z,102420.05
2019-02-24T03:12:09.682Z,102425.08
2019-02-24T03:14:38.023Z,102421.97
2019-02-24T03:17:06.428Z,102420.45
2019-02-24T03:19:34.803Z,102425.19
2019-02-24T03:22:03.159Z,102430.34
2019-02-24T03:24:31.513Z,102422.48
2019-02-24T03:26:59.830Z,102428.11
2019-02-24T03:29:28.220Z,102429.34
2019-02-24T03:31:56.585Z,102431.20
2019-02-24T03:34:24.951Z,102436.42
2019-02-24T03:36:53.302Z,102436.08
2019-02-24T03:39:21.772Z,102434.16
2019-02-24T03:41:50.353Z,102440.77
2019-02-24T03:44:18.721Z,102439.06
2019-02-24T03:46:47.045Z,102441.98
2019-02-24T03:49:15.402Z,102440.38
2019-02-24T03:51:43.729Z,102439.83
2019-02-24T03:54:12.620Z,102439.05
2019-02-24T03:56:41.023Z,102439.61
2019-02-24T03:59:15.120Z,102435.88
2019-02-24T04:01:40.452Z,102435.32
2019-02-24T04:04:08.857Z,102440.52
2019-02-24T04:06:37.201Z,102440.61
2019-02-24T04:09:05.730Z,102438.81
2019-02-24T04:11:34.101Z,102439.53
2019-02-24T04:14:02.509Z,102437.02
2019-02-24T04:16:30.868Z,102431.05
2019-02-24T04:18:59.281Z,102441.16
2019-02-24T04:21:27.585Z,102435.80
2019-02-24T04:23:55.926Z,102429.95
2019-02-24T04:26:24.267Z,102435.32
2019-02-24T04:28:52.590Z,102428.80
2019-02-24T04:31:20.932Z,102436.34
2019-02-24T04:33:49.256Z,102435.30
2019-02-24T04:36:17.616Z,102431.13
2019-02-24T04:38:45.992Z,102433.00
2019-02-24T04:41:14.522Z,102430.34
2019-02-24T04:43:42.886Z,102429.50
2019-02-24T04:46:11.833Z,102432.05
2019-02-24T04:48:40.144Z,102430.48
2019-02-24T04:51:08.498Z,102432.87
2019-02-24T04:53:36.836Z,102433.91
2019-02-24T04:56:05.176Z,102426.47
2019-02-24T04:58:33.548Z,102437.55
2019-02-24T05:01:01.916Z,102437.48
2019-02-24T05:03:30.428Z,102435.55
2019-02-24T05:05:58.742Z,102435.39
2019-02-24T05:08:27.114Z,102438.55
2019-02-24T05:10:55.437Z,102434.59
2019-02-24T05:13:23.795Z,102435.22
2019-02-24T05:15:52.118Z,102437.50
2019-02-24T05:18:20.519Z,102435.23
2019-02-24T05:20:48.872Z,102432.73
2019-02-24T05:23:17.250Z,102440.03
2019-02-24T05:25:45.608Z,102439.05
2019-02-24T05:28:13.952Z,102437.19
2019-02-24T05:30:42.268Z,102444.02
2019-02-24T05:33:12.404Z,102446.44
2019-02-24T05:35:40.737Z,102448.79
2019-02-24T05:38:09.075Z,102446.80
2019-02-24T05:40:37.431Z,102447.45
2019-02-24T05:43:05.761Z,102454.05
2019-02-24T05:45:34.097Z,102453.99
2019-02-24T05:48:02.431Z,102448.99
2019-02-24T05:50:30.843Z,102454.06
2019-02-24T05:52:59.179Z,102445.73
2019-02-24T05:55:27.624Z,102454.13
2019-02-24T05:57:55.914Z,102447.49
2019-02-24T06:00:24.282Z,102448.27
2019-02-24T06:02:52.622Z,102455.99
2019-02-24T06:05:20.980Z,102453.74
2019-02-24T06:07:49.309Z,102458.21
2019-02-24T06:10:17.720Z,102458.59
2019-02-24T06:12:46.085Z,102460.77
2019-02-24T06:15:14.449Z,102452.97
2019-02-24T06:17:42.772Z,102450.56
2019-02-24T06:20:11.755Z,102469.19
2019-02-24T06:22:40.109Z,102471.40
2019-02-24T06:25:09.569Z,102473.81
2019-02-24T06:27:37.901Z,102479.40
2019-02-24T06:30:08.549Z,102488.84
2019-02-24T06:32:36.844Z,102487.56
2019-02-24T06:35:07.342Z,102487.28
2019-02-24T06:37:35.643Z,102484.73
2019-02-24T06:40:04.870Z,102482.53
2019-02-24T06:42:33.189Z,102481.86
2019-02-24T06:45:01.541Z,102482.73
2019-02-24T06:47:29.865Z,102473.32
2019-02-24T06:49:58.223Z,102470.80
2019-02-24T06:52:28.100Z,102470.58
2019-02-24T06:54:56.599Z,102466.31
2019-02-24T06:57:24.952Z,102460.14
2019-02-24T06:59:53.568Z,102456.72
2019-02-24T07:02:21.995Z,102459.59
2019-02-24T07:04:50.358Z,102453.92
2019-02-24T07:07:18.716Z,102449.54
2019-02-24T07:09:47.048Z,102457.06
2019-02-24T07:12:15.386Z,102451.94
2019-02-24T07:14:43.804Z,102444.91
2019-02-24T07:17:12.183Z,102441.84
2019-02-24T07:19:40.516Z,102449.95
2019-02-24T07:22:09.128Z,102442.59
2019-02-24T07:24:37.458Z,102444.45
2019-02-24T07:27:05.967Z,102450.89
2019-02-24T07:29:34.383Z,102449.99
2019-02-24T07:32:09.200Z,102451.72
2019-02-24T07:34:39.021Z,102451.36
2019-02-24T07:37:12.981Z,102450.18
2019-02-24T07:39:38.509Z,102451.75
2019-02-24T07:42:07.514Z,102451.51
2019-02-24T07:44:35.857Z,102451.88
2019-02-24T07:47:04.549Z,102458.13
2019-02-24T07:49:33.270Z,102460.48
2019-02-24T07:52:01.692Z,102457.70
2019-02-24T07:54:30.272Z,102461.20
2019-02-24T07:56:58.933Z,102455.45
2019-02-24T07:59:27.392Z,102453.77
2019-02-24T08:01:56.164Z,102455.27
2019-02-24T08:04:24.682Z,102458.22
2019-02-24T08:06:53.133Z,102453.41
2019-02-24T08:09:21.540Z,102448.58
2019-02-24T08:11:49.876Z,102451.45
2019-02-24T08:14:18.246Z,102463.27
2019-02-24T08:16:46.560Z,102458.72
2019-02-24T08:19:14.966Z,102465.89
2019-02-24T08:21:43.289Z,102472.80
2019-02-24T08:24:11.638Z,102471.92
2019-02-24T08:26:40.007Z,102469.83
2019-02-24T08:29:08.555Z,102465.84
2019-02-24T08:31:36.930Z,102466.89
2019-02-24T08:34:05.253Z,102466.84
2019-02-24T08:36:33.580Z,102465.99
2019-02-24T08:39:01.921Z,102459.09
2019-02-24T08:41:30.355Z,102468.61
2019-02-24T08:43:58.713Z,102464.29
2019-02-24T08:46:27.165Z,102468.05
2019-02-24T08:48:55.496Z,102471.19
2019-02-24T08:51:23.989Z,102469.03
2019-02-24T08:53:52.339Z,102477.69
2019-02-24T08:56:20.695Z,102477.34
2019-02-24T08:58:49.047Z,102482.53
2019-02-24T09:01:17.369Z,102472.78
2019-02-24T09:03:46.356Z,102479.25
2019-02-24T09:06:14.684Z,102479.66
2019-02-24T09:08:43.017Z,102482.07
2019-02-24T09:11:11.468Z,102478.05
2019-02-24T09:13:39.817Z,102488.56
2019-02-24T09:16:08.808Z,102488.03
2019-02-24T09:18:37.251Z,102491.92
2019-02-24T09:21:05.679Z,102490.84
2019-02-24T09:23:34.010Z,102491.00
2019-02-24T09:26:02.365Z,102490.16
2019-02-24T09:28:30.773Z,102492.19
2019-02-24T09:31:01.066Z,102491.13
2019-02-24T09:33:29.476Z,102495.40
2019-02-24T09:35:57.798Z,102496.73
2019-02-24T09:38:26.154Z,102499.61
2019-02-24T09:40:54.477Z,102499.87
2019-02-24T09:43:22.830Z,102500.39
2019-02-24T09:45:51.233Z,102493.50
2019-02-24T09:48:19.540Z,102492.54
2019-02-24T09:50:47.877Z,102492.53
2019-02-24T09:53:16.250Z,102496.55
2019-02-24T09:55:44.572Z,102501.65
2019-02-24T09:58:12.965Z,102503.63
2019-02-24T10:00:41.280Z,102502.20
2019-02-24T10:03:09.986Z,102504.08
2019-02-24T10:05:38.997Z,102507.05
2019-02-24T10:08:08.228Z,102505.61
2019-02-24T10:10:36.662Z,102513.52
2019-02-24T10:13:05.100Z,102509.94
2019-02-24T10:15:33.403Z,102508.86
2019-02-24T10:18:01.762Z,102515.11
2019-02-24T10:20:30.096Z,102511.19
2019-02-24T10:22:58.416Z,102512.77
2019-02-24T10:25:26.745Z,102511.25
2019-02-24T10:27:55.096Z,102512.81
2019-02-24T10:30:23.420Z,102506.86
2019-02-24T10:32:51.819Z,102511.39
2019-02-24T10:35:20.163Z,102511.75
2019-02-24T10:37:48.517Z,102515.98
2019-02-24T10:40:16.857Z,102512.41
2019-02-24T10:42:45.233Z,102510.92
2019-02-24T10:45:15.958Z,102501.89
2019-02-24T10:47:44.440Z,102510.13
2019-02-24T10:50:15.244Z,102511.83
2019-02-24T10:52:43.697Z,102501.78
2019-02-24T10:55:12.577Z,102499.30
2019-02-24T10:57:40.977Z,102497.09
2019-02-24T11:00:12.640Z,102496.62
2019-02-24T11:02:41.172Z,102499.09
2019-02-24T11:05:10.118Z,102492.50
2019-02-24T11:07:38.435Z,102488.38
2019-02-24T11:10:09.576Z,102490.55
2019-02-24T11:12:37.949Z,102501.05
2019-02-24T11:15:09.971Z,102483.48
2019-02-24T11:17:38.344Z,102495.20
2019-02-24T11:20:12.096Z,102487.15
2019-02-24T11:22:40.417Z,102482.31
2019-02-24T11:25:10.790Z,102481.99
2019-02-24T11:27:39.159Z,102479.20
2019-02-24T11:30:13.825Z,102479.89
2019-02-24T11:32:42.124Z,102478.92
2019-02-24T11:35:12.010Z,102484.28
2019-02-24T11:37:40.492Z,102475.66
2019-02-24T11:40:12.722Z,102473.61
2019-02-24T11:42:41.123Z,102474.23
2019-02-24T11:45:10.499Z,102465.47
2019-02-24T11:47:38.911Z,102466.77
2019-02-24T11:50:09.902Z,102455.75
2019-02-24T11:52:38.292Z,102461.33
2019-02-24T11:55:08.562Z,102453.08
2019-02-24T11:57:37.046Z,102456.25
2019-02-24T12:00:11.384Z,102448.47
2019-02-24T12:02:41.738Z,102449.67
2019-02-24T12:05:12.266Z,102447.47
2019-02-24T12:07:40.603Z,102436.89
2019-02-24T12:10:11.641Z,102439.28
2019-02-24T12:12:40.064Z,102438.62
2019-02-24T12:15:11.198Z,102434.28
2019-02-24T12:17:39.574Z,102435.80
2019-02-24T12:20:11.091Z,102430.81
2019-02-24T12:22:39.554Z,102433.14
2019-02-24T12:25:09.368Z,102432.38
2019-02-24T12:27:37.679Z,102433.17
2019-02-24T12:30:09.778Z,102428.62
2019-02-24T12:32:38.157Z,102419.87
2019-02-24T12:35:07.174Z,102422.34
2019-02-24T12:37:35.511Z,102423.05
2019-02-24T12:40:05.024Z,102411.22
2019-02-24T12:42:33.358Z,102409.72
2019-02-24T12:45:01.707Z,102413.45
2019-02-24T12:47:30.054Z,102400.56
2019-02-24T12:50:03.109Z,102388.81
2019-02-24T12:52:28.762Z,102383.56
2019-02-24T12:54:57.097Z,102380.45
2019-02-24T12:57:25.441Z,102379.21
2019-02-24T12:59:53.768Z,102376.83
2019-02-24T13:02:22.253Z,102373.02
2019-02-24T13:04:50.623Z,102361.52
2019-02-24T13:07:18.968Z,102357.07
2019-02-24T13:09:47.315Z,102354.63
2019-02-24T13:12:15.667Z,102351.48
2019-02-24T13:14:44.780Z,102354.53
2019-02-24T13:17:13.109Z,102353.26
2019-02-24T13:19:41.446Z,102351.06
2019-02-24T13:22:10.119Z,102350.92
2019-02-24T13:24:38.462Z,102347.82
2019-02-24T13:27:06.990Z,102343.80
2019-02-24T13:29:35.382Z,102340.56
2019-02-24T13:32:04.884Z,102331.52
2019-02-24T13:34:33.249Z,102340.36
2019-02-24T13:37:01.616Z,102333.00
2019-02-24T13:39:30.213Z,102339.08
2019-02-24T13:41:58.988Z,102335.25
2019-02-24T13:44:27.308Z,102328.33
2019-02-24T13:46:55.634Z,102320.16
2019-02-24T13:49:24.730Z,102323.39
2019-02-24T13:51:53.074Z,102324.38
2019-02-24T13:54:21.421Z,102317.75
2019-02-24T13:56:49.761Z,102311.05
2019-02-24T13:59:18.106Z,102317.14
2019-02-24T14:01:46.416Z,102301.87
2019-02-24T14:04:14.789Z,102301.84
2019-02-24T14:06:43.122Z,102304.06
2019-02-24T14:09:11.584Z,102306.30
2019-02-24T14:11:39.943Z,102305.00
2019-02-24T14:14:09.918Z,102307.98
2019-02-24T14:16:38.338Z,102302.62
2019-02-24T14:19:06.967Z,102294.94
2019-02-24T14:21:35.289Z,102295.86
2019-02-24T14:24:03.837Z,102295.38
2019-02-24T14:26:32.170Z,102294.97
2019-02-24T14:29:00.465Z,102300.55
2019-02-24T14:31:28.800Z,102298.02
2019-02-24T14:33:57.128Z,102298.03
2019-02-24T14:36:25.496Z,102304.16
2019-02-24T14:38:53.866Z,102303.22
2019-02-24T14:41:22.233Z,102306.48
2019-02-24T14:43:50.635Z,102299.31
2019-02-24T14:46:19.040Z,102294.95
2019-02-24T14:48:47.574Z,102297.84
2019-02-24T14:51:15.934Z,102306.50
2019-02-24T14:53:44.284Z,102306.48
2019-02-24T14:56:12.616Z,102302.11
2019-02-24T14:58:40.993Z,102310.88
2019-02-24T15:01:10.316Z,102307.13
2019-02-24T15:03:38.658Z,102313.37
2019-02-24T15:06:07.402Z,102310.12
2019-02-24T15:08:35.755Z,102306.87
2019-02-24T15:11:04.101Z,102307.53
2019-02-24T15:13:32.566Z,102312.17
2019-02-24T15:16:00.913Z,102305.30
2019-02-24T15:18:29.267Z,102310.83
2019-02-24T15:20:57.786Z,102321.39
2019-02-24T15:23:26.190Z,102322.23
2019-02-24T15:25:55.261Z,102319.85
2019-02-24T15:28:23.676Z,102320.39
2019-02-24T15:30:52.032Z,102319.35
2019-02-24T15:33:20.385Z,102318.04
2019-02-24T15:35:48.716Z,102314.93
2019-02-24T15:38:19.037Z,102326.61
2019-02-24T15:40:47.549Z,102322.45
2019-02-24T15:43:16.375Z,102317.30
2019-02-24T15:45:44.860Z,102321.94
2019-02-24T15:48:13.954Z,102320.67
2019-02-24T15:50:42.305Z,102311.94
2019-02-24T15:53:10.674Z,102318.27
2019-02-24T15:55:39.017Z,102318.34
2019-02-24T15:58:07.617Z,102317.62
2019-02-24T16:00:36.037Z,102311.16
2019-02-24T16:03:04.442Z,102307.89
2019-02-24T16:05:32.842Z,102310.45
2019-02-24T16:08:01.382Z,102312.27
2019-02-24T16:10:32.564Z,102311.55
2019-02-24T16:13:01.816Z,102309.13
2019-02-24T16:15:30.437Z,102302.50
2019-02-24T16:17:58.835Z,102312.41
2019-02-24T16:20:31.842Z,102312.11
2019-02-24T16:23:00.165Z,102317.95
2019-02-24T16:25:28.518Z,102317.74
2019-02-24T16:27:57.029Z,102318.80
2019-02-24T16:30:25.383Z,102319.99
2019-02-24T16:32:54.439Z,102324.87
2019-02-24T16:35:22.758Z,102320.08
2019-02-24T16:37:51.386Z,102316.47
2019-02-24T16:40:22.097Z,102307.01
2019-02-24T16:42:50.447Z,102311.37
2019-02-24T16:45:18.788Z,102301.08
2019-02-24T16:47:47.178Z,102301.09
2019-02-24T16:50:16.972Z,102305.59
2019-02-24T16:52:45.329Z,102304.27
2019-02-24T16:55:14.997Z,102304.81
2019-02-24T16:57:43.397Z,102303.18
2019-02-24T17:00:15.307Z,102305.27
2019-02-24T17:02:43.633Z,102299.22
2019-02-24T17:05:12.092Z,102308.55
2019-02-24T17:07:40.538Z,102308.67
2019-02-24T17:10:11.028Z,102310.28
2019-02-24T17:12:39.418Z,102305.50
2019-02-24T17:15:11.117Z,102313.23
2019-02-24T17:17:39.505Z,102317.16
2019-02-24T17:20:10.264Z,102322.12
2019-02-24T17:22:38.699Z,102326.27
2019-02-24T17:25:09.378Z,102326.57
2019-02-24T17:27:37.688Z,102337.97
2019-02-24T17:30:08.095Z,102334.66
2019-02-24T17:32:36.647Z,102329.74
2019-02-24T17:35:06.037Z,102336.36
2019-02-24T17:37:34.449Z,102338.75
2019-02-24T17:40:03.058Z,102351.17
2019-02-24T17:42:31.757Z,102355.66
2019-02-24T17:45:00.283Z,102364.69
2019-02-24T17:47:28.679Z,102370.18
2019-02-24T17:49:57.058Z,102362.92
2019-02-24T17:52:25.388Z,102370.02
2019-02-24T17:54:53.756Z,102363.67
2019-02-24T17:57:22.242Z,102368.11
2019-02-24T17:59:50.566Z,102368.59
2019-02-24T18:02:18.949Z,102362.84
2019-02-24T18:04:47.386Z,102362.97
2019-02-24T18:07:15.718Z,102367.52
2019-02-24T18:09:44.064Z,102368.42
2019-02-24T18:12:13.186Z,102367.34
2019-02-24T18:14:41.541Z,102368.45
2019-02-24T18:17:10.501Z,102363.33
2019-02-24T18:19:38.873Z,102363.38
2019-02-24T18:22:07.225Z,102361.58
2019-02-24T18:24:35.676Z,102364.89
2019-02-24T18:27:04.211Z,102366.50
2019-02-24T18:29:32.579Z,102361.34
2019-02-24T18:32:00.963Z,102361.69
2019-02-24T18:34:29.348Z,102353.93
2019-02-24T18:36:57.761Z,102351.56
2019-02-24T18:39:26.106Z,102346.41
2019-02-24T18:41:54.436Z,102344.32
2019-02-24T18:44:22.806Z,102345.67
2019-02-24T18:46:51.150Z,102349.68
2019-02-24T18:49:19.568Z,102350.30
2019-02-24T18:51:47.920Z,102355.78
2019-02-24T18:54:16.758Z,102355.52
2019-02-24T18:56:45.153Z,102365.72
2019-02-24T18:59:13.827Z,102355.55
2019-02-24T19:01:42.236Z,102351.19
2019-02-24T19:04:11.336Z,102356.02
2019-02-24T19:06:39.667Z,102352.25
2019-02-24T19:09:08.422Z,102350.91
2019-02-24T19:11:36.810Z,102361.72
2019-02-24T19:14:05.285Z,102356.27
2019-02-24T19:16:33.584Z,102361.13
2019-02-24T19:19:01.946Z,102360.03
2019-02-24T19:21:30.317Z,102361.34
2019-02-24T19:23:58.708Z,102364.75
2019-02-24T19:26:27.106Z,102369.23
2019-02-24T19:28:55.505Z,102368.25
2019-02-24T19:31:23.900Z,102370.92
2019-02-24T19:33:52.798Z,102373.45
2019-02-24T19:36:21.132Z,102366.28
2019-02-24T19:38:49.573Z,102375.23
2019-02-24T19:41:17.916Z,102376.09
2019-02-24T19:43:46.232Z,102373.63
2019-02-24T19:46:14.643Z,102380.66
2019-02-24T19:48:43.056Z,102380.33
2019-02-24T19:51:12.159Z,102382.55
2019-02-24T19:53:40.485Z,102381.91
2019-02-24T19:56:09.000Z,102384.42
2019-02-24T19:58:42.177Z,102380.30
2019-02-24T20:01:14.161Z,102380.51
2019-02-24T20:03:46.264Z,102379.53
2019-02-24T20:06:14.670Z,102383.30
2019-02-24T20:08:43.006Z,102385.31
2019-02-24T20:11:11.834Z,102388.25
2019-02-24T20:13:40.176Z,102395.89
2019-02-24T20:16:08.537Z,102405.12
2019-02-24T20:18:36.845Z,102408.69
2019-02-24T20:21:07.929Z,102412.23
2019-02-24T20:23:36.456Z,102417.62
2019-02-24T20:26:04.811Z,102410.70
2019-02-24T20:28:33.120Z,102411.47
2019-02-24T20:31:01.525Z,102407.62
2019-02-24T20:33:31.030Z,102402.93
2019-02-24T20:35:59.378Z,102401.11
2019-02-24T20:38:27.764Z,102395.77
2019-02-24T20:40:56.211Z,102409.45
2019-02-24T20:43:24.516Z,102402.14
2019-02-24T20:45:52.868Z,102407.75
2019-02-24T20:48:21.222Z,102415.84
2019-02-24T20:50:51.237Z,102418.47
2019-02-24T20:53:19.882Z,102417.05
2019-02-24T20:55:48.191Z,102414.83
2019-02-24T20:58:16.588Z,102410.83
2019-02-24T21:00:46.685Z,102414.05
2019-02-24T21:03:15.069Z,102414.19
2019-02-24T21:05:43.462Z,102411.47
2019-02-24T21:08:12.458Z,102410.48
2019-02-24T21:10:40.850Z,102410.11
2019-02-24T21:13:09.542Z,102416.27
2019-02-24T21:15:37.926Z,102427.75
2019-02-24T21:18:06.394Z,102425.73
2019-02-24T21:20:34.876Z,102421.48
2019-02-24T21:23:03.335Z,102418.34
2019-02-24T21:25:32.011Z,102426.16
2019-02-24T21:28:01.405Z,102425.14
2019-02-24T21:30:31.711Z,102425.11
2019-02-24T21:33:00.174Z,102429.38
2019-02-24T21:35:28.542Z,102432.83
2019-02-24T21:37:56.971Z,102426.88
2019-02-24T21:40:25.361Z,102434.34
2019-02-24T21:42:53.900Z,102435.61
2019-02-24T21:45:24.608Z,102437.97
2019-02-24T21:47:52.944Z,102432.83
2019-02-24T21:50:21.999Z,102442.35
2019-02-24T21:52:50.353Z,102451.45
2019-02-24T21:55:18.760Z,102450.92
2019-02-24T21:57:47.138Z,102454.62
2019-02-24T22:00:18.791Z,102450.73
2019-02-24T22:02:47.204Z,102461.27
2019-02-24T22:05:15.959Z,102454.67
2019-02-24T22:07:44.564Z,102450.80
2019-02-24T22:10:14.587Z,102449.00
2019-02-24T22:12:42.932Z,102447.83
2019-02-24T22:15:15.677Z,102444.41
2019-02-24T22:17:44.110Z,102438.23
2019-02-24T22:20:15.027Z,102433.09
2019-02-24T22:22:43.443Z,102430.76
2019-02-24T22:25:14.139Z,102434.64
2019-02-24T22:27:42.688Z,102427.59
2019-02-24T22:30:15.345Z,102437.48
2019-02-24T22:32:43.746Z,102432.09
2019-02-24T22:35:13.026Z,102428.95
2019-02-24T22:37:41.346Z,102434.59
2019-02-24T22:40:12.692Z,102435.09
2019-02-24T22:42:41.242Z,102437.66
2019-02-24T22:45:16.442Z,102434.77
2019-02-24T22:47:44.899Z,102439.91
2019-02-24T22:50:14.694Z,102441.55
2019-02-24T22:52:43.388Z,102435.96
2019-02-24T22:55:14.240Z,102436.65
2019-02-24T22:57:42.597Z,102431.72
2019-02-24T23:00:16.375Z,102429.05
2019-02-24T23:02:44.982Z,102431.06
2019-02-24T23:05:15.344Z,102431.30
2019-02-24T23:08:11.655Z,102420.66
2019-02-24T23:10:40.037Z,102420.98
2019-02-24T23:13:08.390Z,102426.35
2019-02-24T23:15:36.874Z,102425.29
2019-02-24T23:18:05.346Z,102420.62
2019-02-24T23:20:33.688Z,102421.75
2019-02-24T23:23:02.052Z,102425.58
2019-02-24T23:25:30.447Z,102428.98
2019-02-24T23:27:58.768Z,102421.53
2019-02-24T23:30:27.082Z,102421.38
2019-02-24T23:32:55.462Z,102429.66
2019-02-24T23:35:23.862Z,102424.35
2019-02-24T23:37:52.284Z,102436.85
2019-02-24T23:40:20.688Z,102431.30
2019-02-24T23:42:49.047Z,102436.72
2019-02-24T23:45:17.566Z,102433.77
2019-02-24T23:47:45.959Z,102441.08
2019-02-24T23:50:14.578Z,102446.97
2019-02-24T23:52:42.930Z,102445.84
2019-02-24T23:55:12.569Z,102443.95
2019-02-24T23:57:40.897Z,102447.94
